sensor_id;sensor_type;location;lat;lon;timestamp;P1;durP1;ratioP1;P2;durP2;ratioP2
62332;SDS011;48624;49.812;8.562;2023-09-12T00:01:27;18.95;;;10.07;;
62332;SDS011;48624;49.812;8.562;2023-09-12T00:03:57;15.13;;;9.75;;
62332;SDS011;48624;49.812;8.562;2023-09-12T00:06:23;13.77;;;8.80;;
62332;SDS011;48624;49.812;8.562;2023-09-12T00:08:48;13.57;;;9.40;;
62332;SDS011;48624;49.812;8.562;2023-09-12T00:11:13;15.00;;;8.80;;
62332;SDS011;48624;49.812;8.562;2023-09-12T00:13:39;19.52;;;9.00;;
62332;SDS011;48624;49.812;8.562;2023-09-12T00:16:06;14.18;;;8.55;;
62332;SDS011;48624;49.812;8.562;2023-09-12T00:18:32;14.93;;;10.15;;
62332;SDS011;48624;49.812;8.562;2023-09-12T00:20:59;15.38;;;9.40;;
62332;SDS011;48624;49.812;8.562;2023-09-12T00:23:25;16.00;;;9.50;;
62332;SDS011;48624;49.812;8.562;2023-09-12T00:25:51;14.38;;;9.32;;
62332;SDS011;48624;49.812;8.562;2023-09-12T00:28:17;13.32;;;8.38;;
62332;SDS011;48624;49.812;8.562;2023-09-12T00:30:44;13.07;;;8.60;;
62332;SDS011;48624;49.812;8.562;2023-09-12T00:33:09;17.75;;;9.15;;
62332;SDS011;48624;49.812;8.562;2023-09-12T00:35:34;18.02;;;8.65;;
62332;SDS011;48624;49.812;8.562;2023-09-12T04:13:19;14.00;;;9.57;;
62332;SDS011;48624;49.812;8.562;2023-09-12T04:15:45;20.13;;;10.68;;
62332;SDS011;48624;49.812;8.562;2023-09-12T04:18:10;16.60;;;9.50;;
62332;SDS011;48624;49.812;8.562;2023-09-12T04:20:36;16.45;;;9.98;;
62332;SDS011;48624;49.812;8.562;2023-09-12T04:23:01;20.27;;;10.88;;
62332;SDS011;48624;49.812;8.562;2023-09-12T04:25:30;15.20;;;10.38;;
62332;SDS011;48624;49.812;8.562;2023-09-12T04:27:55;12.75;;;9.23;;
62332;SDS011;48624;49.812;8.562;2023-09-12T04:30:21;20.95;;;10.38;;
62332;SDS011;48624;49.812;8.562;2023-09-12T04:32:47;14.80;;;10.00;;
62332;SDS011;48624;49.812;8.562;2023-09-12T04:35:12;13.68;;;9.88;;
62332;SDS011;48624;49.812;8.562;2023-09-12T04:37:37;17.27;;;9.75;;
62332;SDS011;48624;49.812;8.562;2023-09-12T04:40:03;14.93;;;9.57;;
62332;SDS011;48624;49.812;8.562;2023-09-12T04:42:31;19.60;;;9.48;;
62332;SDS011;48624;49.812;8.562;2023-09-12T04:44:56;18.95;;;10.65;;
62332;SDS011;48624;49.812;8.562;2023-09-12T04:47:21;14.90;;;9.57;;
62332;SDS011;48624;49.812;8.562;2023-09-12T04:49:47;19.00;;;10.27;;
62332;SDS011;48624;49.812;8.562;2023-09-12T04:52:12;18.75;;;10.55;;
62332;SDS011;48624;49.812;8.562;2023-09-12T04:54:39;20.23;;;10.45;;
62332;SDS011;48624;49.812;8.562;2023-09-12T04:57:04;17.75;;;10.60;;
62332;SDS011;48624;49.812;8.562;2023-09-12T04:59:29;17.55;;;10.50;;
62332;SDS011;48624;49.812;8.562;2023-09-12T05:01:55;16.90;;;9.77;;
62332;SDS011;48624;49.812;8.562;2023-09-12T05:04:20;14.63;;;10.32;;
62332;SDS011;48624;49.812;8.562;2023-09-12T05:06:45;21.08;;;11.27;;
62332;SDS011;48624;49.812;8.562;2023-09-12T05:09:11;17.33;;;9.95;;
62332;SDS011;48624;49.812;8.562;2023-09-12T05:11:37;19.42;;;10.50;;
62332;SDS011;48624;49.812;8.562;2023-09-12T05:14:02;22.92;;;11.05;;
62332;SDS011;48624;49.812;8.562;2023-09-12T05:16:28;15.55;;;9.43;;
62332;SDS011;48624;49.812;8.562;2023-09-12T05:18:54;15.95;;;11.02;;
62332;SDS011;48624;49.812;8.562;2023-09-12T05:21:20;15.82;;;10.15;;
62332;SDS011;48624;49.812;8.562;2023-09-12T05:23:45;14.15;;;10.48;;
62332;SDS011;48624;49.812;8.562;2023-09-12T05:26:10;16.98;;;10.25;;
62332;SDS011;48624;49.812;8.562;2023-09-12T05:28:36;15.88;;;10.68;;
62332;SDS011;48624;49.812;8.562;2023-09-12T05:31:01;15.23;;;9.43;;
62332;SDS011;48624;49.812;8.562;2023-09-12T05:33:27;16.10;;;9.85;;
62332;SDS011;48624;49.812;8.562;2023-09-12T05:35:53;17.52;;;9.85;;
62332;SDS011;48624;49.812;8.562;2023-09-12T05:38:18;22.80;;;11.20;;
62332;SDS011;48624;49.812;8.562;2023-09-12T05:40:43;22.65;;;11.95;;
62332;SDS011;48624;49.812;8.562;2023-09-12T05:43:09;18.15;;;12.25;;
62332;SDS011;48624;49.812;8.562;2023-09-12T05:45:34;17.35;;;10.43;;
62332;SDS011;48624;49.812;8.562;2023-09-12T05:47:59;19.48;;;11.38;;
62332;SDS011;48624;49.812;8.562;2023-09-12T05:50:25;19.58;;;11.25;;
62332;SDS011;48624;49.812;8.562;2023-09-12T05:52:50;19.75;;;12.82;;
62332;SDS011;48624;49.812;8.562;2023-09-12T05:55:16;18.90;;;11.52;;
62332;SDS011;48624;49.812;8.562;2023-09-12T05:57:42;18.88;;;12.63;;
62332;SDS011;48624;49.812;8.562;2023-09-12T06:00:08;13.90;;;10.75;;
62332;SDS011;48624;49.812;8.562;2023-09-12T06:02:40;18.33;;;12.55;;
62332;SDS011;48624;49.812;8.562;2023-09-12T06:05:07;18.73;;;11.75;;
62332;SDS011;48624;49.812;8.562;2023-09-12T06:07:32;15.73;;;12.23;;
62332;SDS011;48624;49.812;8.562;2023-09-12T06:09:58;14.98;;;10.73;;
62332;SDS011;48624;49.812;8.562;2023-09-12T06:12:23;18.25;;;12.93;;
62332;SDS011;48624;49.812;8.562;2023-09-12T06:14:49;16.58;;;13.13;;
62332;SDS011;48624;49.812;8.562;2023-09-12T06:17:14;16.27;;;11.35;;
62332;SDS011;48624;49.812;8.562;2023-09-12T06:19:40;20.48;;;12.35;;
62332;SDS011;48624;49.812;8.562;2023-09-12T06:22:05;19.77;;;12.20;;
62332;SDS011;48624;49.812;8.562;2023-09-12T06:24:30;19.70;;;13.02;;
62332;SDS011;48624;49.812;8.562;2023-09-12T06:26:55;17.80;;;12.95;;
62332;SDS011;48624;49.812;8.562;2023-09-12T06:29:22;25.02;;;14.48;;
62332;SDS011;48624;49.812;8.562;2023-09-12T06:31:47;20.50;;;13.00;;
62332;SDS011;48624;49.812;8.562;2023-09-12T06:34:13;20.90;;;13.43;;
62332;SDS011;48624;49.812;8.562;2023-09-12T06:36:38;20.15;;;14.45;;
62332;SDS011;48624;49.812;8.562;2023-09-12T06:39:04;19.73;;;13.05;;
62332;SDS011;48624;49.812;8.562;2023-09-12T06:41:30;21.85;;;14.40;;
62332;SDS011;48624;49.812;8.562;2023-09-12T06:43:55;23.75;;;14.35;;
62332;SDS011;48624;49.812;8.562;2023-09-12T06:46:23;23.13;;;14.07;;
62332;SDS011;48624;49.812;8.562;2023-09-12T06:48:48;24.27;;;14.20;;
62332;SDS011;48624;49.812;8.562;2023-09-12T06:51:16;18.42;;;13.95;;
62332;SDS011;48624;49.812;8.562;2023-09-12T06:53:42;17.40;;;13.70;;
62332;SDS011;48624;49.812;8.562;2023-09-12T06:56:08;18.83;;;12.55;;
62332;SDS011;48624;49.812;8.562;2023-09-12T06:58:33;23.08;;;14.40;;
62332;SDS011;48624;49.812;8.562;2023-09-12T07:01:02;26.35;;;15.23;;
62332;SDS011;48624;49.812;8.562;2023-09-12T07:03:29;19.38;;;13.75;;
62332;SDS011;48624;49.812;8.562;2023-09-12T07:05:55;24.52;;;14.60;;
62332;SDS011;48624;49.812;8.562;2023-09-12T07:08:20;18.23;;;14.05;;
62332;SDS011;48624;49.812;8.562;2023-09-12T07:10:46;16.70;;;13.80;;
62332;SDS011;48624;49.812;8.562;2023-09-12T07:13:11;23.70;;;15.38;;
62332;SDS011;48624;49.812;8.562;2023-09-12T07:15:37;22.88;;;14.68;;
62332;SDS011;48624;49.812;8.562;2023-09-12T07:18:03;19.00;;;12.95;;
62332;SDS011;48624;49.812;8.562;2023-09-12T07:20:30;18.33;;;15.10;;
62332;SDS011;48624;49.812;8.562;2023-09-12T07:22:55;24.75;;;15.40;;
62332;SDS011;48624;49.812;8.562;2023-09-12T07:25:21;22.88;;;15.85;;
62332;SDS011;48624;49.812;8.562;2023-09-12T07:27:48;25.33;;;16.13;;
62332;SDS011;48624;49.812;8.562;2023-09-12T07:30:14;22.58;;;14.90;;
62332;SDS011;48624;49.812;8.562;2023-09-12T07:32:40;24.00;;;16.40;;
62332;SDS011;48624;49.812;8.562;2023-09-12T07:35:05;22.42;;;15.68;;
62332;SDS011;48624;49.812;8.562;2023-09-12T07:37:30;28.90;;;15.68;;
62332;SDS011;48624;49.812;8.562;2023-09-12T07:39:56;24.15;;;16.05;;
62332;SDS011;48624;49.812;8.562;2023-09-12T07:42:22;32.65;;;17.17;;
62332;SDS011;48624;49.812;8.562;2023-09-12T07:44:48;20.55;;;16.40;;
62332;SDS011;48624;49.812;8.562;2023-09-12T07:47:13;27.23;;;16.58;;
62332;SDS011;48624;49.812;8.562;2023-09-12T07:49:39;26.20;;;17.63;;
62332;SDS011;48624;49.812;8.562;2023-09-12T07:52:05;22.73;;;16.95;;
62332;SDS011;48624;49.812;8.562;2023-09-12T07:54:30;26.63;;;15.85;;
62332;SDS011;48624;49.812;8.562;2023-09-12T07:56:56;21.17;;;14.88;;
62332;SDS011;48624;49.812;8.562;2023-09-12T07:59:21;22.13;;;14.95;;
62332;SDS011;48624;49.812;8.562;2023-09-12T08:01:47;20.02;;;15.50;;
62332;SDS011;48624;49.812;8.562;2023-09-12T08:04:12;21.10;;;14.00;;
62332;SDS011;48624;49.812;8.562;2023-09-12T08:06:39;25.35;;;15.60;;
62332;SDS011;48624;49.812;8.562;2023-09-12T08:09:06;23.35;;;13.93;;
62332;SDS011;48624;49.812;8.562;2023-09-12T08:11:31;27.50;;;13.95;;
62332;SDS011;48624;49.812;8.562;2023-09-12T08:13:57;22.55;;;14.82;;
62332;SDS011;48624;49.812;8.562;2023-09-12T08:16:22;20.90;;;13.57;;
62332;SDS011;48624;49.812;8.562;2023-09-12T08:18:47;16.55;;;12.95;;
62332;SDS011;48624;49.812;8.562;2023-09-12T08:21:13;27.65;;;14.35;;
62332;SDS011;48624;49.812;8.562;2023-09-12T08:23:38;23.70;;;12.82;;
62332;SDS011;48624;49.812;8.562;2023-09-12T08:26:03;21.33;;;12.85;;
62332;SDS011;48624;49.812;8.562;2023-09-12T08:28:29;20.38;;;13.18;;
62332;SDS011;48624;49.812;8.562;2023-09-12T08:30:54;21.75;;;13.65;;
62332;SDS011;48624;49.812;8.562;2023-09-12T08:33:20;17.50;;;11.77;;
62332;SDS011;48624;49.812;8.562;2023-09-12T08:35:45;21.42;;;13.35;;
62332;SDS011;48624;49.812;8.562;2023-09-12T08:38:10;17.85;;;13.05;;
62332;SDS011;48624;49.812;8.562;2023-09-12T08:40:36;24.50;;;13.68;;
62332;SDS011;48624;49.812;8.562;2023-09-12T08:43:02;20.38;;;14.15;;
62332;SDS011;48624;49.812;8.562;2023-09-12T08:45:31;19.52;;;14.43;;
62332;SDS011;48624;49.812;8.562;2023-09-12T08:47:58;24.27;;;15.52;;
62332;SDS011;48624;49.812;8.562;2023-09-12T08:50:27;24.77;;;12.88;;
62332;SDS011;48624;49.812;8.562;2023-09-12T08:52:56;21.50;;;14.27;;
62332;SDS011;48624;49.812;8.562;2023-09-12T08:55:21;22.63;;;15.88;;
62332;SDS011;48624;49.812;8.562;2023-09-12T08:57:47;22.90;;;13.38;;
62332;SDS011;48624;49.812;8.562;2023-09-12T09:00:15;25.13;;;14.15;;
62332;SDS011;48624;49.812;8.562;2023-09-12T09:02:40;19.75;;;13.13;;
62332;SDS011;48624;49.812;8.562;2023-09-12T09:05:07;25.45;;;13.27;;
62332;SDS011;48624;49.812;8.562;2023-09-12T09:07:41;22.15;;;12.77;;
62332;SDS011;48624;49.812;8.562;2023-09-12T09:10:07;19.60;;;13.52;;
62332;SDS011;48624;49.812;8.562;2023-09-12T09:12:35;17.35;;;12.82;;
62332;SDS011;48624;49.812;8.562;2023-09-12T09:18:06;22.88;;;12.18;;
62332;SDS011;48624;49.812;8.562;2023-09-12T09:20:32;18.15;;;12.00;;
62332;SDS011;48624;49.812;8.562;2023-09-12T09:23:06;16.52;;;11.05;;
62332;SDS011;48624;49.812;8.562;2023-09-12T09:25:34;23.00;;;12.68;;
62332;SDS011;48624;49.812;8.562;2023-09-12T09:28:15;16.13;;;11.20;;
62332;SDS011;48624;49.812;8.562;2023-09-12T09:30:45;21.65;;;12.23;;
62332;SDS011;48624;49.812;8.562;2023-09-12T09:33:13;25.65;;;11.77;;
62332;SDS011;48624;49.812;8.562;2023-09-12T09:35:43;17.30;;;11.27;;
62332;SDS011;48624;49.812;8.562;2023-09-12T09:38:11;17.67;;;10.43;;
62332;SDS011;48624;49.812;8.562;2023-09-12T09:40:41;20.45;;;10.50;;
62332;SDS011;48624;49.812;8.562;2023-09-12T09:43:10;18.13;;;10.75;;
62332;SDS011;48624;49.812;8.562;2023-09-12T09:45:42;17.08;;;10.48;;
62332;SDS011;48624;49.812;8.562;2023-09-12T09:48:10;17.55;;;11.27;;
62332;SDS011;48624;49.812;8.562;2023-09-12T09:50:42;18.30;;;12.05;;
62332;SDS011;48624;49.812;8.562;2023-09-12T09:53:08;22.33;;;11.82;;
62332;SDS011;48624;49.812;8.562;2023-09-12T09:55:35;18.10;;;10.20;;
62332;SDS011;48624;49.812;8.562;2023-09-12T09:58:00;15.48;;;9.90;;
62332;SDS011;48624;49.812;8.562;2023-09-12T10:00:25;16.27;;;11.02;;
62332;SDS011;48624;49.812;8.562;2023-09-12T10:02:54;13.88;;;10.07;;
62332;SDS011;48624;49.812;8.562;2023-09-12T10:05:20;14.02;;;10.00;;
62332;SDS011;48624;49.812;8.562;2023-09-12T10:07:47;17.67;;;10.02;;
62332;SDS011;48624;49.812;8.562;2023-09-12T10:10:17;15.73;;;10.18;;
62332;SDS011;48624;49.812;8.562;2023-09-12T10:12:51;15.93;;;11.07;;
62332;SDS011;48624;49.812;8.562;2023-09-12T10:15:23;17.85;;;10.88;;
62332;SDS011;48624;49.812;8.562;2023-09-12T10:17:57;18.80;;;10.95;;
62332;SDS011;48624;49.812;8.562;2023-09-12T10:20:25;18.48;;;10.15;;
62332;SDS011;48624;49.812;8.562;2023-09-12T10:25:53;14.98;;;10.88;;
62332;SDS011;48624;49.812;8.562;2023-09-12T10:28:19;16.38;;;11.02;;
62332;SDS011;48624;49.812;8.562;2023-09-12T10:30:46;20.50;;;12.38;;
62332;SDS011;48624;49.812;8.562;2023-09-12T10:33:12;21.00;;;13.55;;
62332;SDS011;48624;49.812;8.562;2023-09-12T10:35:39;15.13;;;10.10;;
62332;SDS011;48624;49.812;8.562;2023-09-12T10:38:05;19.63;;;11.38;;
62332;SDS011;48624;49.812;8.562;2023-09-12T10:40:35;21.83;;;13.15;;
62332;SDS011;48624;49.812;8.562;2023-09-12T10:43:02;23.40;;;11.75;;
62332;SDS011;48624;49.812;8.562;2023-09-12T10:45:31;16.17;;;10.73;;
62332;SDS011;48624;49.812;8.562;2023-09-12T10:47:57;12.93;;;10.07;;
62332;SDS011;48624;49.812;8.562;2023-09-12T10:50:22;13.50;;;10.23;;
62332;SDS011;48624;49.812;8.562;2023-09-12T10:52:47;14.40;;;9.20;;
62332;SDS011;48624;49.812;8.562;2023-09-12T10:55:17;19.88;;;11.68;;
62332;SDS011;48624;49.812;8.562;2023-09-12T10:58:01;18.80;;;10.68;;
62332;SDS011;48624;49.812;8.562;2023-09-12T11:00:28;17.83;;;11.98;;
62332;SDS011;48624;49.812;8.562;2023-09-12T11:02:53;17.45;;;12.02;;
62332;SDS011;48624;49.812;8.562;2023-09-12T11:07:56;20.00;;;11.25;;
62332;SDS011;48624;49.812;8.562;2023-09-12T11:10:23;21.98;;;10.35;;
62332;SDS011;48624;49.812;8.562;2023-09-12T11:12:51;17.48;;;9.32;;
62332;SDS011;48624;49.812;8.562;2023-09-12T11:15:18;15.93;;;10.77;;
62332;SDS011;48624;49.812;8.562;2023-09-12T11:17:45;15.50;;;12.00;;
62332;SDS011;48624;49.812;8.562;2023-09-12T11:20:12;16.13;;;11.25;;
62332;SDS011;48624;49.812;8.562;2023-09-12T11:22:40;15.50;;;11.20;;
62332;SDS011;48624;49.812;8.562;2023-09-12T11:30:16;14.03;;;10.70;;
62332;SDS011;48624;49.812;8.562;2023-09-12T11:32:43;10.23;;;9.15;;
62332;SDS011;48624;49.812;8.562;2023-09-12T11:35:10;16.75;;;10.02;;
62332;SDS011;48624;49.812;8.562;2023-09-12T11:37:36;13.95;;;10.55;;
62332;SDS011;48624;49.812;8.562;2023-09-12T11:42:39;15.20;;;9.82;;
62332;SDS011;48624;49.812;8.562;2023-09-12T11:45:07;17.45;;;9.18;;
62332;SDS011;48624;49.812;8.562;2023-09-12T11:47:33;13.70;;;9.48;;
62332;SDS011;48624;49.812;8.562;2023-09-12T11:49:59;13.60;;;9.65;;
62332;SDS011;48624;49.812;8.562;2023-09-12T11:52:24;14.20;;;9.55;;
62332;SDS011;48624;49.812;8.562;2023-09-12T11:54:49;13.02;;;9.27;;
62332;SDS011;48624;49.812;8.562;2023-09-12T11:57:15;13.43;;;8.80;;
62332;SDS011;48624;49.812;8.562;2023-09-12T11:59:42;16.70;;;10.68;;
62332;SDS011;48624;49.812;8.562;2023-09-12T12:02:13;12.77;;;10.63;;
62332;SDS011;48624;49.812;8.562;2023-09-12T12:04:39;16.88;;;11.45;;
62332;SDS011;48624;49.812;8.562;2023-09-12T12:07:06;13.32;;;9.60;;
62332;SDS011;48624;49.812;8.562;2023-09-12T12:09:32;16.75;;;10.02;;
62332;SDS011;48624;49.812;8.562;2023-09-12T12:12:09;12.43;;;9.52;;
62332;SDS011;48624;49.812;8.562;2023-09-12T12:14:38;12.93;;;9.15;;
62332;SDS011;48624;49.812;8.562;2023-09-12T12:17:07;13.50;;;9.05;;
62332;SDS011;48624;49.812;8.562;2023-09-12T12:19:33;16.80;;;9.10;;
62332;SDS011;48624;49.812;8.562;2023-09-12T12:21:59;12.73;;;8.77;;
62332;SDS011;48624;49.812;8.562;2023-09-12T12:24:24;14.98;;;9.45;;
62332;SDS011;48624;49.812;8.562;2023-09-12T12:26:50;16.23;;;9.57;;
62332;SDS011;48624;49.812;8.562;2023-09-12T12:29:15;13.75;;;9.73;;
62332;SDS011;48624;49.812;8.562;2023-09-12T12:31:40;11.75;;;9.13;;
62332;SDS011;48624;49.812;8.562;2023-09-12T12:34:05;11.55;;;8.73;;
62332;SDS011;48624;49.812;8.562;2023-09-12T12:36:31;16.35;;;8.75;;
62332;SDS011;48624;49.812;8.562;2023-09-12T12:38:57;13.60;;;8.93;;
62332;SDS011;48624;49.812;8.562;2023-09-12T12:41:27;15.60;;;9.18;;
62332;SDS011;48624;49.812;8.562;2023-09-12T12:43:53;13.82;;;8.07;;
62332;SDS011;48624;49.812;8.562;2023-09-12T12:46:23;9.23;;;7.68;;
62332;SDS011;48624;49.812;8.562;2023-09-12T12:48:49;11.85;;;8.20;;
62332;SDS011;48624;49.812;8.562;2023-09-12T12:51:15;10.15;;;7.70;;
62332;SDS011;48624;49.812;8.562;2023-09-12T12:53:49;11.48;;;7.65;;
62332;SDS011;48624;49.812;8.562;2023-09-12T12:56:21;12.32;;;7.95;;
62332;SDS011;48624;49.812;8.562;2023-09-12T12:58:49;10.82;;;7.95;;
62332;SDS011;48624;49.812;8.562;2023-09-12T13:01:15;14.85;;;8.65;;
62332;SDS011;48624;49.812;8.562;2023-09-12T13:03:41;12.93;;;9.25;;
62332;SDS011;48624;49.812;8.562;2023-09-12T13:06:07;9.25;;;8.30;;
62332;SDS011;48624;49.812;8.562;2023-09-12T13:08:38;11.48;;;8.18;;
62332;SDS011;48624;49.812;8.562;2023-09-12T13:11:10;13.88;;;8.75;;
62332;SDS011;48624;49.812;8.562;2023-09-12T13:13:36;15.13;;;8.85;;
62332;SDS011;48624;49.812;8.562;2023-09-12T13:16:05;13.20;;;8.57;;
62332;SDS011;48624;49.812;8.562;2023-09-12T13:18:34;10.38;;;7.50;;
62332;SDS011;48624;49.812;8.562;2023-09-12T13:21:01;11.18;;;8.13;;
62332;SDS011;48624;49.812;8.562;2023-09-12T13:23:27;15.88;;;8.32;;
62332;SDS011;48624;49.812;8.562;2023-09-12T13:25:52;10.98;;;8.85;;
62332;SDS011;48624;49.812;8.562;2023-09-12T13:28:18;14.32;;;7.97;;
62332;SDS011;48624;49.812;8.562;2023-09-12T13:30:44;14.00;;;7.82;;
62332;SDS011;48624;49.812;8.562;2023-09-12T13:33:10;11.13;;;8.27;;
62332;SDS011;48624;49.812;8.562;2023-09-12T13:35:36;12.10;;;7.55;;
62332;SDS011;48624;49.812;8.562;2023-09-12T13:38:01;11.00;;;7.80;;
62332;SDS011;48624;49.812;8.562;2023-09-12T13:40:28;12.68;;;7.80;;
62332;SDS011;48624;49.812;8.562;2023-09-12T13:42:54;9.75;;;7.15;;
62332;SDS011;48624;49.812;8.562;2023-09-12T13:45:19;11.98;;;8.30;;
62332;SDS011;48624;49.812;8.562;2023-09-12T13:47:44;12.68;;;7.57;;
62332;SDS011;48624;49.812;8.562;2023-09-12T13:50:09;9.85;;;7.63;;
62332;SDS011;48624;49.812;8.562;2023-09-12T13:52:35;11.93;;;6.95;;
62332;SDS011;48624;49.812;8.562;2023-09-12T13:55:00;10.85;;;6.70;;
62332;SDS011;48624;49.812;8.562;2023-09-12T13:57:28;9.60;;;6.57;;
62332;SDS011;48624;49.812;8.562;2023-09-12T13:59:53;10.23;;;7.88;;
62332;SDS011;48624;49.812;8.562;2023-09-12T14:02:19;12.38;;;7.18;;
62332;SDS011;48624;49.812;8.562;2023-09-12T14:04:44;10.80;;;6.93;;
62332;SDS011;48624;49.812;8.562;2023-09-12T14:07:09;9.70;;;6.38;;
62332;SDS011;48624;49.812;8.562;2023-09-12T14:09:35;13.18;;;6.88;;
62332;SDS011;48624;49.812;8.562;2023-09-12T14:12:01;9.13;;;6.88;;
62332;SDS011;48624;49.812;8.562;2023-09-12T14:14:26;9.20;;;6.60;;
62332;SDS011;48624;49.812;8.562;2023-09-12T14:16:52;10.90;;;7.32;;
62332;SDS011;48624;49.812;8.562;2023-09-12T14:19:17;7.35;;;6.22;;
62332;SDS011;48624;49.812;8.562;2023-09-12T14:21:42;10.52;;;7.13;;
62332;SDS011;48624;49.812;8.562;2023-09-12T14:24:09;16.45;;;7.25;;
62332;SDS011;48624;49.812;8.562;2023-09-12T14:26:34;16.65;;;7.15;;
62332;SDS011;48624;49.812;8.562;2023-09-12T14:29:00;9.73;;;6.97;;
62332;SDS011;48624;49.812;8.562;2023-09-12T14:31:25;10.50;;;7.20;;
62332;SDS011;48624;49.812;8.562;2023-09-12T14:33:50;8.90;;;6.15;;
62332;SDS011;48624;49.812;8.562;2023-09-12T14:36:17;17.40;;;7.75;;
62332;SDS011;48624;49.812;8.562;2023-09-12T14:38:43;9.80;;;7.05;;
62332;SDS011;48624;49.812;8.562;2023-09-12T14:41:13;9.07;;;6.68;;
62332;SDS011;48624;49.812;8.562;2023-09-12T14:43:39;10.23;;;7.03;;
62332;SDS011;48624;49.812;8.562;2023-09-12T14:46:04;8.77;;;6.35;;
62332;SDS011;48624;49.812;8.562;2023-09-12T14:48:30;10.05;;;6.82;;
62332;SDS011;48624;49.812;8.562;2023-09-12T14:50:58;8.48;;;6.43;;
62332;SDS011;48624;49.812;8.562;2023-09-12T14:53:26;14.80;;;7.15;;
62332;SDS011;48624;49.812;8.562;2023-09-12T14:55:52;13.50;;;7.32;;
62332;SDS011;48624;49.812;8.562;2023-09-12T14:58:18;7.45;;;6.63;;
62332;SDS011;48624;49.812;8.562;2023-09-12T15:00:43;13.10;;;7.20;;
62332;SDS011;48624;49.812;8.562;2023-09-12T15:03:08;9.02;;;6.10;;
62332;SDS011;48624;49.812;8.562;2023-09-12T15:05:34;11.30;;;5.82;;
62332;SDS011;48624;49.812;8.562;2023-09-12T15:07:59;11.60;;;7.50;;
62332;SDS011;48624;49.812;8.562;2023-09-12T15:10:26;9.05;;;6.55;;
62332;SDS011;48624;49.812;8.562;2023-09-12T15:12:52;7.80;;;6.45;;
62332;SDS011;48624;49.812;8.562;2023-09-12T15:15:18;9.90;;;6.25;;
62332;SDS011;48624;49.812;8.562;2023-09-12T15:17:44;9.27;;;6.53;;
62332;SDS011;48624;49.812;8.562;2023-09-12T15:20:09;9.52;;;6.28;;
62332;SDS011;48624;49.812;8.562;2023-09-12T15:22:36;14.38;;;6.50;;
62332;SDS011;48624;49.812;8.562;2023-09-12T15:25:01;8.20;;;6.82;;
62332;SDS011;48624;49.812;8.562;2023-09-12T15:27:27;7.40;;;6.07;;
62332;SDS011;48624;49.812;8.562;2023-09-12T15:29:54;11.13;;;6.45;;
62332;SDS011;48624;49.812;8.562;2023-09-12T15:32:19;10.52;;;6.68;;
62332;SDS011;48624;49.812;8.562;2023-09-12T15:34:45;9.18;;;6.05;;
62332;SDS011;48624;49.812;8.562;2023-09-12T15:37:12;9.40;;;6.00;;
62332;SDS011;48624;49.812;8.562;2023-09-12T15:39:38;11.25;;;6.15;;
62332;SDS011;48624;49.812;8.562;2023-09-12T15:42:04;8.27;;;5.63;;
62332;SDS011;48624;49.812;8.562;2023-09-12T15:44:30;9.85;;;7.20;;
62332;SDS011;48624;49.812;8.562;2023-09-12T15:46:55;8.65;;;6.13;;
62332;SDS011;48624;49.812;8.562;2023-09-12T15:49:22;7.85;;;5.88;;
62332;SDS011;48624;49.812;8.562;2023-09-12T15:51:48;10.13;;;6.07;;
62332;SDS011;48624;49.812;8.562;2023-09-12T15:54:14;11.82;;;6.18;;
62332;SDS011;48624;49.812;8.562;2023-09-12T15:56:39;7.70;;;5.80;;
62332;SDS011;48624;49.812;8.562;2023-09-12T15:59:04;8.63;;;6.07;;
62332;SDS011;48624;49.812;8.562;2023-09-12T16:01:29;11.48;;;6.03;;
62332;SDS011;48624;49.812;8.562;2023-09-12T16:03:55;9.40;;;6.43;;
62332;SDS011;48624;49.812;8.562;2023-09-12T16:06:21;7.93;;;6.10;;
62332;SDS011;48624;49.812;8.562;2023-09-12T16:08:47;8.93;;;6.28;;
62332;SDS011;48624;49.812;8.562;2023-09-12T16:11:12;10.88;;;6.97;;
62332;SDS011;48624;49.812;8.562;2023-09-12T16:13:38;8.50;;;6.43;;
62332;SDS011;48624;49.812;8.562;2023-09-12T16:16:03;9.00;;;6.82;;
62332;SDS011;48624;49.812;8.562;2023-09-12T16:18:29;8.88;;;7.60;;
62332;SDS011;48624;49.812;8.562;2023-09-12T16:20:55;12.95;;;8.23;;
62332;SDS011;48624;49.812;8.562;2023-09-12T16:23:22;11.27;;;8.40;;
62332;SDS011;48624;49.812;8.562;2023-09-12T16:25:49;13.00;;;7.72;;
62332;SDS011;48624;49.812;8.562;2023-09-12T16:28:16;9.95;;;6.43;;
62332;SDS011;48624;49.812;8.562;2023-09-12T16:30:41;14.57;;;6.78;;
62332;SDS011;48624;49.812;8.562;2023-09-12T16:33:09;9.77;;;6.55;;
62332;SDS011;48624;49.812;8.562;2023-09-12T16:35:34;10.98;;;7.20;;
62332;SDS011;48624;49.812;8.562;2023-09-12T16:37:59;11.05;;;6.40;;
62332;SDS011;48624;49.812;8.562;2023-09-12T16:40:25;8.95;;;6.57;;
62332;SDS011;48624;49.812;8.562;2023-09-12T16:42:50;8.60;;;6.80;;
62332;SDS011;48624;49.812;8.562;2023-09-12T16:45:15;9.18;;;6.45;;
62332;SDS011;48624;49.812;8.562;2023-09-12T16:47:40;10.73;;;6.68;;
62332;SDS011;48624;49.812;8.562;2023-09-12T16:50:06;14.15;;;6.88;;
62332;SDS011;48624;49.812;8.562;2023-09-12T16:52:31;11.07;;;7.00;;
62332;SDS011;48624;49.812;8.562;2023-09-12T16:54:57;8.70;;;6.28;;
62332;SDS011;48624;49.812;8.562;2023-09-12T16:57:22;8.63;;;7.20;;
62332;SDS011;48624;49.812;8.562;2023-09-12T16:59:48;11.85;;;6.57;;
62332;SDS011;48624;49.812;8.562;2023-09-12T17:02:13;12.93;;;6.75;;
62332;SDS011;48624;49.812;8.562;2023-09-12T17:04:39;10.73;;;6.28;;
62332;SDS011;48624;49.812;8.562;2023-09-12T17:07:07;8.10;;;6.10;;
62332;SDS011;48624;49.812;8.562;2023-09-12T17:09:32;8.40;;;6.45;;
62332;SDS011;48624;49.812;8.562;2023-09-12T17:11:58;7.32;;;6.55;;
62332;SDS011;48624;49.812;8.562;2023-09-12T17:14:23;10.75;;;6.60;;
62332;SDS011;48624;49.812;8.562;2023-09-12T17:16:48;9.18;;;6.18;;
62332;SDS011;48624;49.812;8.562;2023-09-12T17:19:14;10.93;;;6.25;;
62332;SDS011;48624;49.812;8.562;2023-09-12T17:21:40;10.55;;;6.43;;
62332;SDS011;48624;49.812;8.562;2023-09-12T17:24:05;10.82;;;6.05;;
62332;SDS011;48624;49.812;8.562;2023-09-12T17:26:31;8.23;;;5.68;;
62332;SDS011;48624;49.812;8.562;2023-09-12T17:28:56;11.10;;;7.25;;
62332;SDS011;48624;49.812;8.562;2023-09-12T17:31:21;35.45;;;21.13;;
62332;SDS011;48624;49.812;8.562;2023-09-12T17:33:46;14.10;;;7.22;;
62332;SDS011;48624;49.812;8.562;2023-09-12T17:36:12;21.73;;;9.93;;
62332;SDS011;48624;49.812;8.562;2023-09-12T17:38:37;18.67;;;11.75;;
62332;SDS011;48624;49.812;8.562;2023-09-12T17:41:05;19.02;;;12.02;;
62332;SDS011;48624;49.812;8.562;2023-09-12T17:43:30;26.65;;;14.82;;
62332;SDS011;48624;49.812;8.562;2023-09-12T17:45:55;21.55;;;15.13;;
62332;SDS011;48624;49.812;8.562;2023-09-12T17:48:21;24.38;;;15.68;;
62332;SDS011;48624;49.812;8.562;2023-09-12T17:50:52;24.25;;;13.20;;
62332;SDS011;48624;49.812;8.562;2023-09-12T17:53:18;14.93;;;8.60;;
62332;SDS011;48624;49.812;8.562;2023-09-12T17:55:46;8.35;;;6.72;;
62332;SDS011;48624;49.812;8.562;2023-09-12T17:58:12;9.88;;;8.07;;
62332;SDS011;48624;49.812;8.562;2023-09-12T18:00:39;13.25;;;9.32;;
62332;SDS011;48624;49.812;8.562;2023-09-12T18:03:04;11.27;;;8.15;;
62332;SDS011;48624;49.812;8.562;2023-09-12T18:05:29;11.40;;;8.30;;
62332;SDS011;48624;49.812;8.562;2023-09-12T18:07:55;14.65;;;8.88;;
62332;SDS011;48624;49.812;8.562;2023-09-12T18:10:21;13.45;;;10.00;;
62332;SDS011;48624;49.812;8.562;2023-09-12T18:12:47;17.92;;;8.80;;
62332;SDS011;48624;49.812;8.562;2023-09-12T18:15:13;15.55;;;9.95;;
62332;SDS011;48624;49.812;8.562;2023-09-12T18:17:39;14.25;;;9.85;;